Weather at Spetsai Airport [CLOSED]

Public forecast

Using degrees Celsius for public forecast. Weather courtesy of forecast.io.

Closest aviation weather report (METAR) to Spetsai Airport

Closest report is Elefsis Airport, 45.3 nm (83.8 km) NNE. Retrieved 2021/06/15 17:20 UTC (33 minutes ago):

LGEL 151720Z 00000KT 9999 FEW025 SCT070 22/08 Q1012

Closest aviation forecast (TAF) to Spetsai Airport

Closest forecast is Elefsis Airport, 45.3 nm (83.8 km) NNE. Retrieved 2021/06/15 12:16 UTC (6 hours ago):

TAF LGEL 151100Z 1512/1612 34010KT 9999 FEW018 SCT070 BECMG 1520/1522 VRB05KT FEW020 PROB30 TEMPO 1512/1515 5000 RA FEW018 BKN020 PROB30 TEMPO 1512/1515 FEW010 FEW018CB BKN020